Ocean View, HI (96737)

2:53 AM HST on July 31, 2015 (GMT -1000)
Discovery Harbour - South | | Change Station
CLOSE
Current Station
Personal Weather Station
Location: Mountain View, HI
Elevation: 1047 ft
Nearby Weather Stations

Elev 1047 ft 19.03 °N, 155.63 °W | Updated 3 minutes ago

Mostly Cloudy
Mostly Cloudy
73.2 °F
Feels Like 70 °F
N
7.8
Wind Variable Wind from NE
Gusts 17.1 mph

Today
High -- | Low -- °F
--% Chance of Precip.
Yesterday
High -- | Low -- °F
Precip. -- in
5:59 AM 6:58 PM
Full, 100% visible
Pressure 29.92 in
Visibility 10.0 miles
Clouds Scattered Clouds 2100 ft
Scattered Clouds 2700 ft
Mostly Cloudy 3300 ft
Heat Index 70 °F
Dew Point 71 °F
Humidity 92%
Rainfall 0.00 in
Snow Depth Not available.
UV 0 out of 12
Pollen Not available.
Air Quality Not available.
Flu Activity Not available.
METAR PHKO 311153Z AUTO 03005KT 10SM SCT021 SCT027 BKN033 28/21 A2992 RMK AO2 SLP130 T02780211 10289 20272 58008 TSNO

More Conditions Fewer Conditions

Pressure 29.92 in
Visibility 10.0 miles
Clouds Scattered Clouds 2100 ft
Scattered Clouds 2700 ft
Mostly Cloudy 3300 ft
Heat Index 70 °F
Dew Point 71 °F
Humidity 92%
Rainfall 0.00 in
Snow Depth Not available.
UV 0 out of 12
Pollen Not available.
Air Quality Not available.
Flu Activity Not available.
METAR PHKO 311153Z AUTO 03005KT 10SM SCT021 SCT027 BKN033 28/21 A2992 RMK AO2 SLP130 T02780211 10289 20272 58008 TSNO

More Conditions Fewer Conditions

10-Day Weather Forecast

×

Almanac

Astronomy

Jul. 31, 2015 Rise Set
Actual Time
Civil Twilight
Nautical Twilight
Astronomical Twilight
Moon
Length of Visible Light
Length of Day
Tomorrow will be .
, % of the Moon is Illuminated

Today's Extremes

State Highs State Lows

Community

WunderPhotos

Upload Photos

1,842,646 photos uploaded!

WunderBlogs® & News

Nearby

Air Quality

  Air Quality AQ Index Pollutant
Not available.

Snow Depth

Station Depth Elevation

Earthquake Activity

City Distance Mag. Time & Date
Minimum magnitude displayed is 2.5.

Coastal Water Temperatures

Place Temperature

Stations

Nearby Weather Stations

Station Location Temp. Windchill Dew Point Humidity Wind Precip. Elev Updated Type